createdAt,value
2023-11-20T00:02:11.699Z,22.63
2023-11-20T00:05:13.858Z,20.70
2023-11-20T00:08:15.556Z,20.48
2023-11-20T00:11:17.644Z,22.38
2023-11-20T00:14:19.559Z,18.50
2023-11-20T00:17:21.146Z,18.97
2023-11-20T00:20:22.872Z,22.15
2023-11-20T00:23:24.480Z,22.80
2023-11-20T00:26:26.999Z,20.33
2023-11-20T00:29:28.785Z,21.13
2023-11-20T00:32:30.497Z,18.50
2023-11-20T00:35:32.207Z,19.92
2023-11-20T00:38:33.830Z,19.85
2023-11-20T00:41:36.917Z,19.52
2023-11-20T00:44:38.771Z,20.30
2023-11-20T00:47:40.398Z,18.63
2023-11-20T00:50:42.629Z,19.00
2023-11-20T00:53:44.300Z,19.85
2023-11-20T00:56:45.907Z,19.27
2023-11-20T00:59:47.633Z,20.00
2023-11-20T01:02:49.415Z,20.43
2023-11-20T01:05:51.117Z,18.98
2023-11-20T01:08:52.833Z,20.10
2023-11-20T01:11:54.463Z,18.70
2023-11-20T01:14:56.079Z,17.97
2023-11-20T01:17:59.431Z,19.57
2023-11-20T01:21:01.138Z,23.05
2023-11-20T01:24:02.780Z,18.50
2023-11-20T01:27:04.707Z,19.13
2023-11-20T01:30:09.658Z,18.25
2023-11-20T01:33:14.503Z,16.30
2023-11-20T01:36:19.626Z,19.33
2023-11-20T01:39:21.300Z,17.77
2023-11-20T01:42:22.995Z,18.17
2023-11-20T01:45:24.640Z,18.83
2023-11-20T01:48:26.629Z,19.57
2023-11-20T01:51:29.372Z,20.70
2023-11-20T01:54:32.864Z,23.23
2023-11-20T01:57:35.796Z,22.00
2023-11-20T02:00:37.889Z,20.27
2023-11-20T02:03:39.842Z,21.63
2023-11-20T02:06:42.285Z,22.13
2023-11-20T02:09:44.306Z,19.25
2023-11-20T02:12:46.092Z,20.92
2023-11-20T02:15:47.843Z,20.95
2023-11-20T02:18:50.063Z,20.27
2023-11-20T02:21:52.218Z,20.27
2023-11-20T02:24:54.152Z,20.73
2023-11-20T02:28:07.416Z,19.42
2023-11-20T02:31:09.773Z,21.70
2023-11-20T02:34:12.139Z,23.53
2023-11-20T02:37:13.966Z,20.65
2023-11-20T02:40:15.807Z,20.92
2023-11-20T02:43:17.486Z,19.33
2023-11-20T02:46:19.109Z,21.03
2023-11-20T02:49:20.864Z,19.87
2023-11-20T02:52:22.475Z,19.35
2023-11-20T02:55:24.060Z,20.98
2023-11-20T02:58:25.727Z,20.08
2023-11-20T03:01:27.414Z,18.45
2023-11-20T03:04:29.154Z,19.10
2023-11-20T03:07:30.817Z,18.38
2023-11-20T03:10:32.719Z,19.70
2023-11-20T03:13:34.761Z,18.23
2023-11-20T03:16:36.646Z,17.15
2023-11-20T03:19:38.327Z,16.17
2023-11-20T03:22:39.945Z,16.60
2023-11-20T03:25:42.021Z,16.80
2023-11-20T03:28:43.708Z,16.20
2023-11-20T03:31:45.930Z,18.10
2023-11-20T03:34:47.588Z,16.73
2023-11-20T03:37:49.218Z,16.00
2023-11-20T03:40:50.822Z,15.10
2023-11-20T03:43:52.648Z,15.43
2023-11-20T03:46:54.383Z,15.32
2023-11-20T03:49:56.073Z,15.23
2023-11-20T03:52:57.704Z,15.95
2023-11-20T03:55:59.436Z,16.35
2023-11-20T03:59:01.073Z,15.75
2023-11-20T04:02:02.795Z,26.07
2023-11-20T04:05:05.111Z,16.27
2023-11-20T04:08:06.762Z,16.70
2023-11-20T04:11:08.522Z,16.33
2023-11-20T04:14:10.270Z,14.98
2023-11-20T04:17:11.907Z,13.85
2023-11-20T04:20:14.262Z,12.93
2023-11-20T04:23:16.530Z,13.07
2023-11-20T04:26:18.150Z,14.02
2023-11-20T04:29:19.818Z,14.50
2023-11-20T04:32:21.681Z,14.23
2023-11-20T04:35:23.421Z,14.43
2023-11-20T04:38:30.409Z,12.75
2023-11-20T04:41:32.587Z,14.55
2023-11-20T04:44:34.304Z,13.00
2023-11-20T04:47:35.952Z,14.33
2023-11-20T04:50:37.742Z,14.80
2023-11-20T04:53:39.321Z,15.32
2023-11-20T04:56:41.197Z,13.93
2023-11-20T04:59:42.815Z,14.60
2023-11-20T05:02:44.990Z,13.25
2023-11-20T05:05:46.727Z,13.07
2023-11-20T05:08:48.331Z,13.13
2023-11-20T05:11:51.081Z,14.75
2023-11-20T05:14:52.695Z,18.33
2023-11-20T05:17:54.500Z,13.90
2023-11-20T05:20:56.189Z,17.30
2023-11-20T05:24:00.081Z,17.20
2023-11-20T05:27:01.789Z,16.00
2023-11-20T05:30:05.290Z,17.08
2023-11-20T05:33:06.973Z,14.32
2023-11-20T05:36:09.034Z,12.47
2023-11-20T05:39:10.948Z,14.95
2023-11-20T05:42:13.119Z,32.88
2023-11-20T05:45:14.824Z,41.97
2023-11-20T05:48:16.549Z,17.77
2023-11-20T05:51:21.107Z,29.17
2023-11-20T05:54:22.778Z,18.45
2023-11-20T05:57:24.658Z,13.93
2023-11-20T06:00:28.016Z,12.75
2023-11-20T06:03:29.805Z,12.90
2023-11-20T06:06:31.560Z,13.50
2023-11-20T06:09:33.392Z,12.15
2023-11-20T06:12:35.026Z,14.68
2023-11-20T06:15:37.034Z,17.70
2023-11-20T06:18:38.745Z,18.00
2023-11-20T06:21:52.907Z,14.63
2023-11-20T06:24:54.652Z,15.15
2023-11-20T06:27:56.361Z,14.50
2023-11-20T06:30:58.065Z,14.38
2023-11-20T06:33:59.834Z,17.23
2023-11-20T06:37:03.076Z,13.40
2023-11-20T06:40:07.376Z,15.18
2023-11-20T06:43:09.821Z,15.32
2023-11-20T06:46:18.333Z,15.07
2023-11-20T06:49:22.841Z,16.67
2023-11-20T06:52:24.845Z,18.30
2023-11-20T06:55:26.733Z,15.55
2023-11-20T06:58:28.371Z,17.02
2023-11-20T07:01:30.077Z,17.65
2023-11-20T07:04:37.930Z,21.23
2023-11-20T07:07:51.895Z,26.37
2023-11-20T07:10:53.761Z,21.23
2023-11-20T07:13:55.573Z,19.17
2023-11-20T07:16:57.382Z,17.70
2023-11-20T07:19:59.057Z,15.23
2023-11-20T07:23:02.749Z,18.63
2023-11-20T07:26:04.758Z,14.07
2023-11-20T07:29:06.561Z,13.23
2023-11-20T07:32:08.533Z,11.88
2023-11-20T07:35:13.610Z,10.02
2023-11-20T07:38:16.269Z,15.10
2023-11-20T07:41:18.252Z,13.60
2023-11-20T07:44:20.786Z,10.77
2023-11-20T07:47:23.251Z,13.35
2023-11-20T07:50:25.773Z,14.82
2023-11-20T07:53:28.074Z,12.00
2023-11-20T07:56:29.795Z,14.63
2023-11-20T07:59:31.542Z,10.30
2023-11-20T08:02:33.516Z,11.25
2023-11-20T08:05:44.314Z,10.90
2023-11-20T08:08:50.777Z,9.50
2023-11-20T08:11:52.394Z,9.35
2023-11-20T08:14:54.050Z,8.50
2023-11-20T08:17:55.794Z,10.93
2023-11-20T08:20:57.457Z,8.57
2023-11-20T08:23:59.238Z,7.13
2023-11-20T08:27:00.875Z,9.20
2023-11-20T08:30:05.166Z,10.02
2023-11-20T08:33:09.639Z,8.93
2023-11-20T08:36:11.779Z,10.07
2023-11-20T08:39:13.831Z,10.80
2023-11-20T08:42:15.671Z,9.85
2023-11-20T08:45:17.488Z,8.07
2023-11-20T08:48:19.244Z,9.02
2023-11-20T08:51:22.293Z,8.93
2023-11-20T08:54:25.383Z,9.13
2023-11-20T08:57:27.146Z,8.68
2023-11-20T09:00:29.731Z,10.57
2023-11-20T09:03:32.230Z,10.10
2023-11-20T09:06:34.333Z,13.73
2023-11-20T09:09:36.744Z,9.13
2023-11-20T09:12:38.481Z,11.68
2023-11-20T09:15:40.285Z,11.15
2023-11-20T09:18:42.631Z,15.20
2023-11-20T09:21:45.013Z,13.73
2023-11-20T09:24:52.891Z,11.83
2023-11-20T09:28:03.345Z,15.05
2023-11-20T09:31:05.178Z,10.25
2023-11-20T09:34:07.681Z,9.07
2023-11-20T09:37:09.410Z,6.68
2023-11-20T09:40:12.605Z,7.60
2023-11-20T09:43:17.141Z,7.05
2023-11-20T09:46:20.876Z,7.45
2023-11-20T09:49:27.078Z,5.35
2023-11-20T09:52:34.213Z,4.30
2023-11-20T09:55:35.870Z,4.73
2023-11-20T09:58:37.760Z,6.47
2023-11-20T10:01:41.882Z,4.75
2023-11-20T10:04:45.260Z,7.53
2023-11-20T10:07:49.045Z,7.05
2023-11-20T10:10:52.372Z,8.20
2023-11-20T10:13:54.068Z,5.22
2023-11-20T10:16:56.459Z,6.75
2023-11-20T10:19:58.885Z,5.63
2023-11-20T10:23:05.921Z,5.47
2023-11-20T10:26:09.086Z,4.70
2023-11-20T10:29:11.108Z,7.35
2023-11-20T10:32:14.083Z,5.85
2023-11-20T10:35:18.243Z,6.13
2023-11-20T10:38:22.100Z,4.40
2023-11-20T10:41:23.721Z,2.87
2023-11-20T10:44:27.284Z,5.28
2023-11-20T10:47:29.093Z,4.93
2023-11-20T10:50:34.246Z,4.90
2023-11-20T10:53:42.189Z,4.72
2023-11-20T10:56:44.369Z,4.07
2023-11-20T10:59:47.310Z,5.15
2023-11-20T11:02:58.241Z,6.10
2023-11-20T11:06:10.948Z,5.75
2023-11-20T11:09:17.510Z,6.53
2023-11-20T11:12:23.103Z,13.47
2023-11-20T11:15:24.802Z,6.50
2023-11-20T11:18:30.643Z,6.88
2023-11-20T11:21:54.285Z,6.97
2023-11-20T11:24:59.661Z,5.85
2023-11-20T11:28:04.328Z,4.67
2023-11-20T11:31:09.411Z,7.15
2023-11-20T11:34:56.061Z,7.30
2023-11-20T11:38:12.650Z,7.03
2023-11-20T11:41:46.939Z,7.50
2023-11-20T11:45:05.757Z,5.13
2023-11-20T11:48:07.492Z,5.97
2023-11-20T11:51:30.435Z,6.15
2023-11-20T11:54:32.090Z,6.88
2023-11-20T11:57:34.074Z,6.45
2023-11-20T12:00:35.735Z,8.17
2023-11-20T12:03:38.264Z,6.32
2023-11-20T12:06:40.589Z,5.70
2023-11-20T12:10:01.054Z,11.32
2023-11-20T12:13:11.897Z,6.85
2023-11-20T12:16:15.819Z,5.87
2023-11-20T12:19:17.884Z,8.05
2023-11-20T12:22:19.695Z,4.57
2023-11-20T12:25:24.530Z,5.53
2023-11-20T12:28:28.999Z,6.72
2023-11-20T12:31:30.970Z,7.63
2023-11-20T12:34:32.692Z,6.63
2023-11-20T12:37:35.676Z,7.40
2023-11-20T12:40:37.740Z,8.40
2023-11-20T12:43:39.929Z,6.93
2023-11-20T12:46:42.040Z,6.40
2023-11-20T12:49:45.096Z,7.55
2023-11-20T12:52:48.564Z,6.40
2023-11-20T12:55:54.519Z,7.82
2023-11-20T12:58:57.961Z,5.10
2023-11-20T13:01:59.689Z,9.10
2023-11-20T13:05:05.605Z,7.05
2023-11-20T13:08:07.415Z,5.95
2023-11-20T13:11:12.521Z,6.53
2023-11-20T13:14:15.441Z,6.80
2023-11-20T13:17:17.948Z,5.23
2023-11-20T13:20:48.731Z,12.27
2023-11-20T13:24:04.018Z,4.93
2023-11-20T13:27:05.868Z,6.80
2023-11-20T13:30:11.586Z,6.85
2023-11-20T13:33:13.375Z,5.23
2023-11-20T13:36:15.037Z,6.47
2023-11-20T13:39:20.899Z,5.43
2023-11-20T13:42:23.650Z,7.75
2023-11-20T13:45:25.502Z,4.32
2023-11-20T13:48:28.503Z,6.73
2023-11-20T13:51:30.126Z,6.18
2023-11-20T13:54:31.849Z,5.97
2023-11-20T13:57:33.641Z,6.05
2023-11-20T14:00:35.359Z,5.55
2023-11-20T14:03:37.106Z,7.10
2023-11-20T14:06:39.869Z,7.15
2023-11-20T14:09:41.586Z,10.88
2023-11-20T14:12:44.298Z,6.53
2023-11-20T14:15:46.166Z,5.07
2023-11-20T14:18:47.865Z,5.37
2023-11-20T14:21:49.637Z,6.13
2023-11-20T14:24:54.467Z,5.97
2023-11-20T14:28:00.133Z,7.18
2023-11-20T14:31:01.857Z,6.25
2023-11-20T14:34:04.759Z,5.23
2023-11-20T14:37:06.671Z,6.72
2023-11-20T14:40:12.673Z,7.65
2023-11-20T14:43:14.385Z,5.70
2023-11-20T14:46:16.186Z,7.78
2023-11-20T14:49:18.039Z,8.07
2023-11-20T14:52:19.772Z,8.82
2023-11-20T14:55:21.759Z,7.60
2023-11-20T14:58:23.476Z,7.88
2023-11-20T15:01:25.349Z,6.97
2023-11-20T15:04:27.708Z,8.03
2023-11-20T15:07:29.427Z,6.30
2023-11-20T15:10:31.421Z,6.55
2023-11-20T15:13:33.524Z,6.03
2023-11-20T15:16:35.352Z,6.57
2023-11-20T15:19:37.432Z,6.53
2023-11-20T15:22:39.073Z,5.70
2023-11-20T15:25:40.750Z,6.22
2023-11-20T15:28:42.378Z,5.40
2023-11-20T15:31:44.159Z,7.30
2023-11-20T15:34:45.843Z,8.20
2023-11-20T15:37:48.852Z,7.90
2023-11-20T15:40:51.177Z,7.63
2023-11-20T15:43:53.835Z,6.32
2023-11-20T15:46:55.559Z,7.55
2023-11-20T15:49:57.263Z,7.30
2023-11-20T15:52:58.918Z,8.25
2023-11-20T15:56:01.418Z,11.43
2023-11-20T15:59:03.151Z,9.07
2023-11-20T16:02:05.010Z,10.00
2023-11-20T16:05:09.244Z,7.50
2023-11-20T16:08:11.169Z,8.23
2023-11-20T16:11:13.275Z,8.25
2023-11-20T16:14:15.646Z,10.57
2023-11-20T16:17:17.485Z,9.32
2023-11-20T16:20:19.166Z,9.63
2023-11-20T16:23:20.840Z,8.82
2023-11-20T16:26:23.265Z,16.42
2023-11-20T16:29:24.989Z,11.50
2023-11-20T16:32:26.792Z,9.90
2023-11-20T16:35:28.681Z,10.37
2023-11-20T16:38:30.649Z,10.02
2023-11-20T16:41:32.537Z,15.50
2023-11-20T16:44:34.597Z,11.15
2023-11-20T16:47:39.836Z,11.32
2023-11-20T16:50:41.608Z,10.30
2023-11-20T16:53:44.201Z,12.75
2023-11-20T16:56:45.900Z,11.73
2023-11-20T16:59:48.138Z,10.63
2023-11-20T17:02:50.009Z,10.27
2023-11-20T17:05:52.105Z,10.67
2023-11-20T17:08:55.482Z,12.73
2023-11-20T17:11:57.177Z,9.55
2023-11-20T17:14:59.151Z,9.20
2023-11-20T17:18:01.078Z,10.55
2023-11-20T17:21:02.871Z,10.03
2023-11-20T17:24:04.865Z,10.35
2023-11-20T17:27:06.623Z,10.60
2023-11-20T17:30:08.861Z,9.88
2023-11-20T17:33:10.515Z,8.95
2023-11-20T17:36:16.685Z,9.17
2023-11-20T17:39:19.864Z,11.32
2023-11-20T17:42:21.769Z,9.30
2023-11-20T17:45:23.515Z,11.65
2023-11-20T17:48:26.751Z,11.18
2023-11-20T17:51:28.957Z,10.77
2023-11-20T17:54:30.618Z,11.57
2023-11-20T17:57:32.533Z,13.38
2023-11-20T18:00:34.299Z,8.70
2023-11-20T18:03:36.014Z,9.63
2023-11-20T18:06:37.812Z,11.73
2023-11-20T18:09:39.551Z,9.63
2023-11-20T18:12:41.371Z,10.60
2023-11-20T18:15:44.406Z,11.25
2023-11-20T18:18:46.597Z,9.10
2023-11-20T18:21:53.687Z,11.43
2023-11-20T18:24:56.751Z,11.95
2023-11-20T18:27:58.425Z,13.90
2023-11-20T18:31:00.111Z,9.57
2023-11-20T18:34:01.933Z,10.23
2023-11-20T18:37:04.940Z,9.17
2023-11-20T18:40:09.045Z,10.45
2023-11-20T18:43:10.917Z,11.27
2023-11-20T18:46:18.464Z,9.38
2023-11-20T18:49:20.206Z,9.75
2023-11-20T18:52:21.852Z,10.97
2023-11-20T18:55:25.973Z,10.88
2023-11-20T18:58:27.652Z,8.38
2023-11-20T19:01:29.406Z,10.07
2023-11-20T19:04:31.122Z,8.82
2023-11-20T19:07:32.976Z,10.00
2023-11-20T19:10:35.044Z,7.95
2023-11-20T19:13:36.779Z,10.85
2023-11-20T19:16:38.529Z,10.02
2023-11-20T19:19:40.289Z,8.25
2023-11-20T19:22:42.618Z,7.13
2023-11-20T19:25:44.845Z,8.82
2023-11-20T19:28:46.702Z,7.68
2023-11-20T19:31:49.524Z,8.55
2023-11-20T19:34:51.221Z,8.25
2023-11-20T19:37:53.449Z,11.17
2023-11-20T19:40:55.194Z,8.68
2023-11-20T19:43:57.551Z,7.03
2023-11-20T19:46:59.994Z,9.23
2023-11-20T19:50:03.196Z,8.00
2023-11-20T19:53:05.196Z,8.73
2023-11-20T19:56:07.126Z,11.25
2023-11-20T19:59:09.353Z,11.98
2023-11-20T20:02:11.177Z,12.23
2023-11-20T20:05:16.293Z,10.65
2023-11-20T20:08:17.972Z,11.27
2023-11-20T20:11:19.872Z,11.88
2023-11-20T20:14:22.307Z,11.38
2023-11-20T20:17:24.110Z,9.57
2023-11-20T20:20:26.691Z,10.98
2023-11-20T20:23:31.498Z,11.07
2023-11-20T20:26:33.164Z,11.55
2023-11-20T20:29:35.758Z,8.75
2023-11-20T20:32:37.635Z,8.23
2023-11-20T20:35:39.264Z,9.25
2023-11-20T20:38:40.943Z,8.87
2023-11-20T20:41:42.699Z,10.63
2023-11-20T20:44:44.870Z,7.72
2023-11-20T20:47:46.585Z,7.80
2023-11-20T20:50:48.855Z,8.57
2023-11-20T20:53:50.714Z,7.83
2023-11-20T20:56:53.720Z,7.03
2023-11-20T20:59:57.458Z,9.15
2023-11-20T21:02:59.163Z,10.57
2023-11-20T21:06:00.905Z,10.07
2023-11-20T21:09:04.353Z,10.73
2023-11-20T21:12:06.288Z,8.93
2023-11-20T21:15:08.640Z,7.80
2023-11-20T21:18:10.227Z,7.75
2023-11-20T21:21:16.006Z,9.20
2023-11-20T21:24:17.830Z,7.17
2023-11-20T21:27:19.478Z,8.90
2023-11-20T21:30:21.147Z,6.22
2023-11-20T21:33:22.844Z,6.53
2023-11-20T21:36:24.446Z,6.20
2023-11-20T21:39:26.058Z,6.53
2023-11-20T21:42:28.355Z,6.75
2023-11-20T21:45:30.353Z,6.80
2023-11-20T21:48:31.992Z,11.45
2023-11-20T21:51:33.590Z,10.75
2023-11-20T21:54:35.283Z,23.10
2023-11-20T21:57:38.134Z,31.27
2023-11-20T22:00:39.829Z,14.95
2023-11-20T22:03:41.595Z,23.25
2023-11-20T22:06:43.315Z,17.20
2023-11-20T22:09:46.156Z,13.20
2023-11-20T22:12:48.827Z,11.27
2023-11-20T22:15:50.519Z,10.10
2023-11-20T22:18:53.156Z,11.18
2023-11-20T22:21:56.082Z,9.93
2023-11-20T22:24:58.811Z,10.97
2023-11-20T22:28:00.445Z,8.45
2023-11-20T22:31:04.379Z,12.00
2023-11-20T22:34:06.751Z,8.00
2023-11-20T22:37:08.587Z,8.35
2023-11-20T22:40:10.991Z,9.33
2023-11-20T22:43:12.765Z,8.52
2023-11-20T22:46:14.488Z,10.23
2023-11-20T22:49:17.447Z,8.07
2023-11-20T22:52:19.079Z,11.55
2023-11-20T22:55:20.852Z,9.63
2023-11-20T22:58:22.495Z,8.70
2023-11-20T23:01:24.257Z,9.35
2023-11-20T23:04:26.154Z,8.55
2023-11-20T23:07:28.051Z,10.77
2023-11-20T23:10:31.589Z,7.57
2023-11-20T23:13:35.045Z,8.80
2023-11-20T23:16:36.863Z,6.82
2023-11-20T23:19:41.730Z,6.93
2023-11-20T23:22:43.633Z,10.57
2023-11-20T23:25:47.455Z,6.30
2023-11-20T23:28:49.287Z,6.53
2023-11-20T23:31:51.228Z,6.18
2023-11-20T23:34:52.873Z,6.82
2023-11-20T23:37:54.440Z,6.43
2023-11-20T23:40:56.217Z,7.80
2023-11-20T23:43:58.285Z,6.35
2023-11-20T23:47:02.996Z,8.80
2023-11-20T23:50:05.559Z,7.90
2023-11-20T23:53:07.168Z,9.93
2023-11-20T23:56:09.845Z,10.07
2023-11-20T23:59:11.581Z,8.23
